Flood watches and warnings may be in place at some locations. For the latest rainfall, river conditions, flood watches and warnings see BoM.

Forecasts are only available for sites displaying the forecast symbol.

Some water levels are actually in metres AHD (Australian Height Datum), click individual sites for more details.

Scroll for more >

River gauges, storages, and weirs in the Murray–Darling Basin

Type Locationsort ascending River Water level Flow Volume Release Water temp Salinity Rainfall
Weirs Yarrawonga Weir Upstream Murray 124.76 m 22/10/2021 5:45 Not measured Not measured Not measured Not measured Not measured 0.00 mm 21/10/2021 9:00 Full data
Weirs Yarrawonga Weir Downstream Murray 2.27 m 22/10/2021 5:30 15213 ML/Day 22/10/2021 5:30 Not measured Not measured 17.8°C 22/10/2021 5:30 59.6 μS/cm 22/10/2021 5:30 Not measured Full data
River Gauge Yarrawonga Main Channel Murray 123.61 m 22/10/2021 5:45 Not measured Not measured 843.2 ML/d22/10/2021 5:45 Not measured Not measured Not measured Full data
River Gauge Wilcania Darling 2.22 m 22/10/2021 4:45 2743 ML/Day 22/10/2021 4:45 Not measured Not measured 20.9°C 22/10/2021 4:45 319.9 μS/cm 22/10/2021 4:45 Not measured Full data
Weirs Wentworth Weir Murray 29.63 m 22/10/2021 5:45 Not measured Not measured 34736.9 ML/d21/10/2021 7:45 Not measured 136.0 μS/cm 28/09/2021 7:45 Not measured Full data
River Gauge Weir 32 Upstream Darling 2.04 m 22/10/2021 5:45 2448 ML/Day 22/10/2021 5:45 Not measured Not measured 19.2°C 22/10/2021 5:45 379.9 μS/cm 22/10/2021 5:45 Not measured Full data
River Gauge Wakool Junction Murray 6.63 m 22/10/2021 5:45 29189 ML/Day 22/10/2021 5:45 Not measured Not measured 18.3°C 22/10/2021 5:45 83.0 μS/cm 22/10/2021 5:45 Not measured Full data
River Gauge Wakool Canal Wakool 0.99 m 22/10/2021 4:45 Not measured Not measured 1649.5 ML/d21/10/2021 8:45 Not measured Not measured Not measured Full data
Weirs Torrumbarry Weir Upstream Murray 86.05 m 22/10/2021 4:45 Not measured 37 GL 21/10/2021 7:45 Not measured 17.1°C 21/10/2021 7:45 0.00 μS/cm 22/10/2021 0:45 0.00 mm 19/10/2021 9:00 Full data
Weirs Torrumbarry Weir Downstream Murray 5.85 m 22/10/2021 5:45 23154 ML/Day 22/10/2021 5:45 Not measured Not measured 17.3°C 22/10/2021 5:45 62.3 μS/cm 22/10/2021 5:45 Not measured Full data
River Gauge Torrumbarry Headworks Murray 84.82 m 22/10/2021 5:45 Not measured Not measured 1734.0 ML/d22/10/2021 5:45 Not measured Not measured Not measured Full data
River Gauge Tocumwal Murray 3.29 m 22/10/2021 5:45 18948 ML/Day 22/10/2021 5:45 Not measured Not measured 17.5°C 22/10/2021 5:45 45.5 μS/cm 22/10/2021 5:45 Not measured Full data
River Gauge Tauwitchere Barrage Murray 0.83 m 22/10/2021 3:45 Not measured Not measured Not measured Not measured Not measured Not measured Full data
River Gauge Tallandoon Mitta 1.78 m 22/10/2021 5:45 1493 ML/Day 22/10/2021 5:45 Not measured Not measured 13.3°C 22/10/2021 5:45 43.7 μS/cm 22/10/2021 5:45 Not measured Full data
River Gauge Tallandoon Mitta 1.78 m 22/10/2021 5:45 1493 ML/Day 22/10/2021 5:45 Not measured Not measured 13.3°C 22/10/2021 5:45 43.7 μS/cm 22/10/2021 5:45 Not measured Full data
River Gauge Swan Hill Murray 3.37 m 20/10/2021 14:45 20465 ML/Day 20/10/2021 14:45 Not measured Not measured 17.7°C 20/10/2021 14:45 0.00 μS/cm 22/10/2021 2:45 Not measured Full data
River Gauge Stoney Crossing Murray 3.22 m 22/10/2021 4:45 5907 ML/Day 22/10/2021 4:45 Not measured 5808.8 ML/d21/10/2021 7:45 19.8°C 22/10/2021 4:45 73.9 μS/cm 22/10/2021 4:45 Not measured Full data
Weirs Steven's Weir Upstream Edward 4.9 m 22/10/2021 5:45 Not measured Not measured Not measured Not measured Not measured Not measured Full data
Weirs Steven's Weir Downstream Edward 4.65 m 22/10/2021 4:45 8681 ML/Day 22/10/2021 4:45 Not measured Not measured 18.2°C 22/10/2021 4:45 62.4 μS/cm 22/10/2021 4:45 Not measured Full data
River Gauge Rufus River Murray 22.93 m 21/10/2021 7:45 Not measured Not measured 547.0 ML/d21/10/2021 7:45 Not measured 152.9 μS/cm 22/10/2021 2:30 Not measured Full data
River Gauge Rochester Campaspe 1.88 m 22/10/2021 5:45 195 ML/Day 22/10/2021 5:45 Not measured Not measured 17.5°C 22/10/2021 5:45 607.1 μS/cm 22/10/2021 5:45 0.00 mm 21/10/2021 9:00 Full data
River Gauge Redcliffs Murray Not measured Not measured Not measured Not measured Not measured 113.1 μS/cm 21/10/2021 7:45 Not measured Full data
River Gauge Pinegrove Murray 1.99 m 22/10/2021 5:45 1692 ML/Day 22/10/2021 5:45 Not measured Not measured 13.7°C 22/10/2021 5:45 53.8 μS/cm 22/10/2021 5:45 0.00 mm 20/10/2021 9:00 Full data
River Gauge Peechelba Ovens 128.7 m 22/10/2021 5:45 6108 ML/Day 22/10/2021 5:45 Not measured Not measured 15.7°C 22/10/2021 5:45 54.7 μS/cm 22/10/2021 5:45 Not measured Full data
River Gauge Murray Bridge Murray 0.83 m 22/10/2021 3:45 Not measured Not measured Not measured 18.0°C 22/10/2021 3:45 189.9 μS/cm 22/10/2021 3:45 Not measured Full data
River Gauge Mundoo Barrage Murray 0.72 m 21/10/2021 7:45 Not measured Not measured Not measured Not measured Not measured Not measured Full data
River Gauge Mulwala Canal Murray Not measured Not measured Not measured 3398.2 ML/d21/10/2021 8:45 Not measured Not measured Not measured Full data
River Gauge Morgan Downstream Murray Not measured Not measured Not measured 27250.1 ML/d22/10/2021 3:45 Not measured 194.0 μS/cm 22/10/2021 2:45 Not measured Full data
Weirs Mildura Weir downstream Murray 32.61 m 22/10/2021 5:45 Not measured Not measured Not measured 18.7°C 22/10/2021 5:45 114.3 μS/cm 22/10/2021 5:45 Not measured Full data
Storage Menindee Lakes Darling Not measured Not measured 1955 GL 21/10/2021 7:45 Not measured Not measured Not measured Not measured Full data
River Gauge McCoy Bridge Goulburn 3.56 m 22/10/2021 5:45 5028 ML/Day 22/10/2021 5:45 Not measured Not measured 16.6°C 22/10/2021 5:45 79.0 μS/cm 22/10/2021 5:45 Not measured Full data
Weirs Lock 9 Upstream Murray 27.53 m 22/10/2021 3:45 Not measured Not measured Not measured 19.2°C 22/10/2021 3:45 125.7 μS/cm 22/10/2021 3:45 Not measured Full data
Weirs Lock 9 Downstream Murray 26.09 m 22/10/2021 3:45 Not measured Not measured Not measured Not measured Not measured Not measured Full data
Weirs Lock 8 Upstream Murray 24.89 m 22/10/2021 3:45 Not measured Not measured Not measured 19.2°C 22/10/2021 3:45 128.8 μS/cm 22/10/2021 3:45 Not measured Full data
Weirs Lock 7 Upstream Murray 23 m 22/10/2021 3:45 Not measured Not measured Not measured 19.1°C 22/10/2021 3:45 127.0 μS/cm 22/10/2021 3:45 Not measured Full data
Weirs Lock 7 Downstream Murray 22.97 m 22/10/2021 3:45 Not measured Not measured Not measured Not measured Not measured Not measured Full data
Weirs Lock 6 Upstream Murray 19.67 m 22/10/2021 3:45 Not measured Not measured Not measured 19.0°C 22/10/2021 3:45 127.7 μS/cm 22/10/2021 3:45 Not measured Full data
Weirs Lock 6 Downstream Murray 18.1 m 22/10/2021 3:45 Not measured Not measured Not measured Not measured Not measured Not measured Full data
Weirs Lock 5 Upstream Murray 16.76 m 22/10/2021 3:45 Not measured Not measured Not measured 19.3°C 22/10/2021 3:45 136.7 μS/cm 22/10/2021 3:45 Not measured Full data
Weirs Lock 5 Downstream Murray 14.7 m 22/10/2021 3:45 Not measured Not measured Not measured Not measured Not measured Not measured Full data
Weirs Lock 4 Upstream Murray 13.45 m 22/10/2021 3:45 Not measured Not measured Not measured Not measured Not measured Not measured Full data
Weirs Lock 4 Downstream Murray 12.15 m 22/10/2021 3:45 Not measured Not measured Not measured Not measured Not measured Not measured Full data
Weirs Lock 3 Upstream Murray 9.81 m 22/10/2021 3:45 Not measured Not measured Not measured Not measured Not measured Not measured Full data
Weirs Lock 3 Downstream Murray 8.03 m 22/10/2021 3:45 Not measured Not measured Not measured Not measured Not measured Not measured Full data
Weirs Lock 2 Upstream Murray 6.29 m 22/10/2021 3:45 Not measured Not measured Not measured 18.6°C 22/10/2021 3:45 201.7 μS/cm 22/10/2021 3:45 Not measured Full data
Weirs Lock 2 Downstream Murray 5.17 m 22/10/2021 3:45 Not measured Not measured Not measured Not measured Not measured Not measured Full data
Weirs Lock 1 Upstream Murray 3.29 m 22/10/2021 3:45 Not measured Not measured Not measured 18.7°C 22/10/2021 3:45 200.7 μS/cm 22/10/2021 3:45 Not measured Full data
Weirs Lock 1 Downstream Murray 1.99 m 22/10/2021 3:45 Not measured Not measured 30173.3 ML/d21/10/2021 7:45 Not measured Not measured Not measured Full data
Storage Lake Victoria Murray 26.66 m 22/10/2021 3:45 Not measured 635 GL 22/10/2021 3:45 Not measured 16.7°C 22/10/2021 3:45 150.2 μS/cm 22/10/2021 3:45 Not measured Full data
River Gauge Lake Alexandrina Murray 0.83 m 22/10/2021 5:45 Not measured 1664 GL 22/10/2021 5:45 Not measured Not measured 575.5 μS/cm 22/10/2021 2:45 Not measured Full data
River Gauge Lake Albert Murray 0.82 m 22/10/2021 5:45 Not measured 284 GL 22/10/2021 5:45 Not measured Not measured Not measured Not measured Full data
River Gauge Kerang Loddon 0.52 m 22/10/2021 5:45 568 ML/Day 22/10/2021 5:45 Not measured Not measured 18.3°C 22/10/2021 5:45 132.9 μS/cm 22/10/2021 5:45 Not measured Full data
River Gauge Jingellic Murray 2.32 m 22/10/2021 5:45 10074 ML/Day 22/10/2021 5:45 Not measured Not measured 14.9°C 22/10/2021 5:45 52.1 μS/cm 22/10/2021 5:45 0.00 mm 20/10/2021 9:00 Full data
Storage Hume Dam Murray 191.74 m 22/10/2021 5:45 Not measured 2952 GL 22/10/2021 5:45 8740.0 ML/d21/10/2021 8:00 Not measured Not measured 0.00 mm 21/10/2021 9:00 Full data
River Gauge Hinnomunjie Mitta 1.08 m 22/10/2021 5:45 1572 ML/Day 22/10/2021 5:45 Not measured Not measured 11.5°C 22/10/2021 5:45 39.1 μS/cm 22/10/2021 5:45 0.00 mm 20/10/2021 9:00 Full data
River Gauge Gulpa Creek Offtake Murray 3.21 m 22/10/2021 5:45 906 ML/Day 22/10/2021 5:45 Not measured Not measured Not measured Not measured Not measured Full data
River Gauge Frenchman Creek Murray 27.69 m 21/10/2021 7:45 Not measured Not measured 4997.1 ML/d21/10/2021 7:45 Not measured Not measured Not measured Full data
River Gauge Flow to South Australia Murray Not measured Not measured Not measured 30256.1 ML/d21/10/2021 7:45 Not measured Not measured Not measured Full data
Weirs Euston Weir Upstream Murray 47.52 m 21/10/2021 8:45 Not measured 36 GL 21/10/2021 7:45 Not measured Not measured Not measured 145.9 mm 5/03/2020 9:00 Full data
Weirs Euston Weir Downstream Murray 46.65 m 22/10/2021 5:45 34472 ML/Day 22/10/2021 5:45 Not measured Not measured 18.4°C 22/10/2021 5:45 124.2 μS/cm 22/10/2021 5:45 Not measured Full data
River Gauge Edward River Offtake Murray 2.78 m 22/10/2021 5:45 2181 ML/Day 22/10/2021 5:45 Not measured Not measured 17.7°C 22/10/2021 4:45 52.7 μS/cm 22/10/2021 4:45 Not measured Full data
River Gauge Edward Escape Wakool 0.43 m 22/10/2021 4:45 209 ML/Day 22/10/2021 4:45 Not measured Not measured 18.7°C 22/10/2021 4:45 57.2 μS/cm 22/10/2021 4:45 Not measured Full data
River Gauge Echuca Wharf Murray 89.56 m 22/10/2021 4:45 Not measured Not measured Not measured Not measured Not measured Not measured Full data
River Gauge Doctors Point Murray 3.02 m 22/10/2021 5:45 14318 ML/Day 22/10/2021 5:45 Not measured Not measured 12.4°C 22/10/2021 5:45 64.2 μS/cm 22/10/2021 5:45 Not measured Full data
Storage Dartmouth Dam Mitta 474.78 m 22/10/2021 6:30 Not measured 3162 GL 22/10/2021 6:30 Not measured Not measured Not measured Not measured Full data
Storage Dartmouth Dam Mitta 474.78 m 22/10/2021 6:30 Not measured 3162 GL 22/10/2021 6:30 Not measured Not measured Not measured Not measured Full data
River Gauge Corowa Murray 2.66 m 22/10/2021 5:45 12452 ML/Day 22/10/2021 5:45 Not measured Not measured 15.7°C 22/10/2021 5:45 49.3 μS/cm 22/10/2021 5:45 Not measured Full data
River Gauge Colignan Murray 5.1 m 22/10/2021 5:45 34724 ML/Day 22/10/2021 5:45 Not measured Not measured 18.6°C 22/10/2021 5:45 117.7 μS/cm 22/10/2021 5:45 Not measured Full data
River Gauge Colemans Mitta 0.91 m 22/10/2021 6:15 210 ML/Day 22/10/2021 6:15 Not measured Not measured 13.2°C 22/10/2021 5:45 59.7 μS/cm 22/10/2021 5:45 Not measured Full data
River Gauge Colemans Mitta 0.91 m 22/10/2021 6:15 210 ML/Day 22/10/2021 6:15 Not measured Not measured 13.2°C 22/10/2021 5:45 59.7 μS/cm 22/10/2021 5:45 Not measured Full data
River Gauge Burtundy Darling 1.67 m 22/10/2021 5:15 2396 ML/Day 22/10/2021 5:15 Not measured Not measured 20.1°C 22/10/2021 5:15 282.5 μS/cm 22/10/2021 5:15 Not measured Full data
River Gauge Bringenbrong Bridge Murray 2.1 m 22/10/2021 5:45 8210 ML/Day 22/10/2021 5:45 Not measured Not measured Not measured Not measured Not measured Full data
River Gauge Biggara Murray 1.02 m 22/10/2021 5:45 2385 ML/Day 22/10/2021 5:45 Not measured Not measured 12.1°C 22/10/2021 5:45 16.1 μS/cm 22/10/2021 5:45 0.00 mm 20/10/2021 9:00 Full data
River Gauge Barmah Choke Murray 4.7 m 22/10/2021 5:45 18356 ML/Day 22/10/2021 5:45 Not measured Not measured Not measured Not measured Not measured Full data
River Gauge Bandiana Kiewa 2.04 m 22/10/2021 5:45 2070 ML/Day 22/10/2021 5:45 Not measured Not measured 14.2°C 22/10/2021 5:45 41.6 μS/cm 22/10/2021 5:45 Not measured Full data
River Gauge Balranald Murrumbidgee 5.99 m 22/10/2021 5:45 10939 ML/Day 22/10/2021 5:45 Not measured Not measured 19.6°C 22/10/2021 5:45 195.4 μS/cm 22/10/2021 5:45 Not measured Full data
River Gauge Albury (Union Bridge) Murray 2.06 m 22/10/2021 5:45 Not measured Not measured Not measured 12.7°C 22/10/2021 5:45 65.0 μS/cm 22/10/2021 5:45 Not measured Full data